sensor_id;sensor_type;location;lat;lon;timestamp;temperature;humidity
6865;DHT22;3471;49.678;8.388;2022-12-07T00:02:01;5.80;99.90
6865;DHT22;3471;49.678;8.388;2022-12-07T00:04:26;5.70;99.90
6865;DHT22;3471;49.678;8.388;2022-12-07T00:06:52;5.70;99.90
6865;DHT22;3471;49.678;8.388;2022-12-07T00:09:18;5.70;99.90
6865;DHT22;3471;49.678;8.388;2022-12-07T00:11:49;5.70;99.90
6865;DHT22;3471;49.678;8.388;2022-12-07T00:14:16;5.70;99.90
6865;DHT22;3471;49.678;8.388;2022-12-07T00:16:42;5.70;99.90
6865;DHT22;3471;49.678;8.388;2022-12-07T00:19:10;5.70;99.90
6865;DHT22;3471;49.678;8.388;2022-12-07T00:21:36;5.70;99.90
6865;DHT22;3471;49.678;8.388;2022-12-07T00:24:03;5.60;99.90
6865;DHT22;3471;49.678;8.388;2022-12-07T00:26:38;5.60;99.90
6865;DHT22;3471;49.678;8.388;2022-12-07T00:29:25;5.60;99.90
6865;DHT22;3471;49.678;8.388;2022-12-07T00:31:51;5.60;99.90
6865;DHT22;3471;49.678;8.388;2022-12-07T00:34:19;5.60;99.90
6865;DHT22;3471;49.678;8.388;2022-12-07T00:36:45;5.60;99.90
6865;DHT22;3471;49.678;8.388;2022-12-07T00:39:11;5.60;99.90
6865;DHT22;3471;49.678;8.388;2022-12-07T00:41:36;5.60;99.90
6865;DHT22;3471;49.678;8.388;2022-12-07T00:44:02;5.60;99.90
6865;DHT22;3471;49.678;8.388;2022-12-07T00:46:28;5.60;99.90
6865;DHT22;3471;49.678;8.388;2022-12-07T00:48:54;5.70;99.90
6865;DHT22;3471;49.678;8.388;2022-12-07T00:51:22;5.70;99.90
6865;DHT22;3471;49.678;8.388;2022-12-07T00:53:48;5.70;99.90
6865;DHT22;3471;49.678;8.388;2022-12-07T00:58:53;5.70;99.90
6865;DHT22;3471;49.678;8.388;2022-12-07T01:01:19;5.70;99.90
6865;DHT22;3471;49.678;8.388;2022-12-07T01:03:44;5.70;99.90
6865;DHT22;3471;49.678;8.388;2022-12-07T01:06:14;5.70;99.90
6865;DHT22;3471;49.678;8.388;2022-12-07T01:08:40;5.70;99.90
6865;DHT22;3471;49.678;8.388;2022-12-07T01:11:07;5.70;99.90
6865;DHT22;3471;49.678;8.388;2022-12-07T01:13:35;5.70;99.90
6865;DHT22;3471;49.678;8.388;2022-12-07T01:16:02;5.70;99.90
6865;DHT22;3471;49.678;8.388;2022-12-07T01:18:30;5.70;99.90
6865;DHT22;3471;49.678;8.388;2022-12-07T01:23:24;5.70;99.90
6865;DHT22;3471;49.678;8.388;2022-12-07T01:25:57;5.70;99.90
6865;DHT22;3471;49.678;8.388;2022-12-07T01:28:23;5.70;99.90
6865;DHT22;3471;49.678;8.388;2022-12-07T01:31:19;5.70;99.90
6865;DHT22;3471;49.678;8.388;2022-12-07T01:33:48;5.60;99.90
6865;DHT22;3471;49.678;8.388;2022-12-07T01:36:21;5.60;99.90
6865;DHT22;3471;49.678;8.388;2022-12-07T01:38:48;5.60;99.90
6865;DHT22;3471;49.678;8.388;2022-12-07T01:41:15;5.60;99.90
6865;DHT22;3471;49.678;8.388;2022-12-07T01:46:43;5.60;99.90
6865;DHT22;3471;49.678;8.388;2022-12-07T01:49:17;5.60;99.90
6865;DHT22;3471;49.678;8.388;2022-12-07T01:51:43;5.60;99.90
6865;DHT22;3471;49.678;8.388;2022-12-07T01:54:11;5.60;99.90
6865;DHT22;3471;49.678;8.388;2022-12-07T01:56:40;5.60;99.90
6865;DHT22;3471;49.678;8.388;2022-12-07T01:59:08;5.70;99.90
6865;DHT22;3471;49.678;8.388;2022-12-07T02:01:33;5.70;99.90
6865;DHT22;3471;49.678;8.388;2022-12-07T02:03:59;5.70;99.90
6865;DHT22;3471;49.678;8.388;2022-12-07T02:06:25;5.70;99.90
6865;DHT22;3471;49.678;8.388;2022-12-07T02:08:52;5.60;99.90
6865;DHT22;3471;49.678;8.388;2022-12-07T02:11:19;5.60;99.90
6865;DHT22;3471;49.678;8.388;2022-12-07T02:13:46;5.50;99.90
6865;DHT22;3471;49.678;8.388;2022-12-07T02:27:46;5.30;99.90
6865;DHT22;3471;49.678;8.388;2022-12-07T02:30:19;5.30;99.90
6865;DHT22;3471;49.678;8.388;2022-12-07T02:33:00;5.30;99.90
6865;DHT22;3471;49.678;8.388;2022-12-07T02:35:42;5.30;99.90
6865;DHT22;3471;49.678;8.388;2022-12-07T02:38:29;5.30;99.90
6865;DHT22;3471;49.678;8.388;2022-12-07T02:43:39;5.30;99.90
6865;DHT22;3471;49.678;8.388;2022-12-07T02:46:11;5.30;99.90
6865;DHT22;3471;49.678;8.388;2022-12-07T02:48:38;5.30;99.90
6865;DHT22;3471;49.678;8.388;2022-12-07T02:51:05;5.40;99.90
6865;DHT22;3471;49.678;8.388;2022-12-07T02:53:36;5.40;99.90
6865;DHT22;3471;49.678;8.388;2022-12-07T02:59:36;5.50;99.90
6865;DHT22;3471;49.678;8.388;2022-12-07T03:05:02;5.50;99.90
6865;DHT22;3471;49.678;8.388;2022-12-07T03:07:42;5.50;99.90
6865;DHT22;3471;49.678;8.388;2022-12-07T03:12:44;5.50;99.90
6865;DHT22;3471;49.678;8.388;2022-12-07T03:15:42;5.50;99.90
6865;DHT22;3471;49.678;8.388;2022-12-07T03:18:11;5.50;99.90
6865;DHT22;3471;49.678;8.388;2022-12-07T03:20:39;5.50;99.90
6865;DHT22;3471;49.678;8.388;2022-12-07T03:23:08;5.50;99.90
6865;DHT22;3471;49.678;8.388;2022-12-07T03:25:39;5.50;99.90
6865;DHT22;3471;49.678;8.388;2022-12-07T03:28:07;5.40;99.90
6865;DHT22;3471;49.678;8.388;2022-12-07T03:33:49;5.50;99.90
6865;DHT22;3471;49.678;8.388;2022-12-07T03:36:13;5.50;99.90
6865;DHT22;3471;49.678;8.388;2022-12-07T03:38:45;5.50;99.90
6865;DHT22;3471;49.678;8.388;2022-12-07T03:41:19;5.50;99.90
6865;DHT22;3471;49.678;8.388;2022-12-07T03:43:48;5.60;99.90
6865;DHT22;3471;49.678;8.388;2022-12-07T03:51:40;5.60;99.90
6865;DHT22;3471;49.678;8.388;2022-12-07T03:54:28;5.60;99.90
6865;DHT22;3471;49.678;8.388;2022-12-07T03:56:55;5.60;99.90
6865;DHT22;3471;49.678;8.388;2022-12-07T03:59:22;5.60;99.90
6865;DHT22;3471;49.678;8.388;2022-12-07T04:01:54;5.60;99.90
6865;DHT22;3471;49.678;8.388;2022-12-07T04:04:21;5.70;99.90
6865;DHT22;3471;49.678;8.388;2022-12-07T04:06:47;5.60;99.90
6865;DHT22;3471;49.678;8.388;2022-12-07T04:09:12;5.60;99.90
6865;DHT22;3471;49.678;8.388;2022-12-07T04:11:40;5.60;99.90
6865;DHT22;3471;49.678;8.388;2022-12-07T04:14:05;5.60;99.90
6865;DHT22;3471;49.678;8.388;2022-12-07T04:16:48;5.60;99.90
6865;DHT22;3471;49.678;8.388;2022-12-07T04:19:15;5.60;99.90
6865;DHT22;3471;49.678;8.388;2022-12-07T04:21:41;5.60;99.90
6865;DHT22;3471;49.678;8.388;2022-12-07T04:24:07;5.60;99.90
6865;DHT22;3471;49.678;8.388;2022-12-07T04:26:33;5.60;99.90
6865;DHT22;3471;49.678;8.388;2022-12-07T04:28:58;5.60;99.90
6865;DHT22;3471;49.678;8.388;2022-12-07T04:31:24;5.60;99.90
6865;DHT22;3471;49.678;8.388;2022-12-07T04:33:50;5.60;99.90
6865;DHT22;3471;49.678;8.388;2022-12-07T04:36:15;5.60;99.90
6865;DHT22;3471;49.678;8.388;2022-12-07T04:38:41;5.70;99.90
6865;DHT22;3471;49.678;8.388;2022-12-07T04:41:08;5.70;99.90
6865;DHT22;3471;49.678;8.388;2022-12-07T04:43:34;5.70;99.90
6865;DHT22;3471;49.678;8.388;2022-12-07T04:46:00;5.70;99.90
6865;DHT22;3471;49.678;8.388;2022-12-07T04:48:26;5.70;99.90
6865;DHT22;3471;49.678;8.388;2022-12-07T04:50:52;5.70;99.90
6865;DHT22;3471;49.678;8.388;2022-12-07T04:53:18;5.70;99.90
6865;DHT22;3471;49.678;8.388;2022-12-07T04:55:45;5.70;99.90
6865;DHT22;3471;49.678;8.388;2022-12-07T04:58:11;5.70;99.90
6865;DHT22;3471;49.678;8.388;2022-12-07T05:00:36;5.80;99.90
6865;DHT22;3471;49.678;8.388;2022-12-07T05:03:02;5.70;99.90
6865;DHT22;3471;49.678;8.388;2022-12-07T05:05:28;5.70;99.90
6865;DHT22;3471;49.678;8.388;2022-12-07T05:07:53;5.80;99.90
6865;DHT22;3471;49.678;8.388;2022-12-07T05:10:19;5.80;99.90
6865;DHT22;3471;49.678;8.388;2022-12-07T05:12:45;5.80;99.90
6865;DHT22;3471;49.678;8.388;2022-12-07T05:15:11;5.80;99.90
6865;DHT22;3471;49.678;8.388;2022-12-07T05:17:37;5.80;99.90
6865;DHT22;3471;49.678;8.388;2022-12-07T05:20:03;5.80;99.90
6865;DHT22;3471;49.678;8.388;2022-12-07T05:22:29;5.70;99.90
6865;DHT22;3471;49.678;8.388;2022-12-07T05:24:55;5.70;99.90
6865;DHT22;3471;49.678;8.388;2022-12-07T05:27:21;5.70;99.90
6865;DHT22;3471;49.678;8.388;2022-12-07T05:29:47;5.80;99.90
6865;DHT22;3471;49.678;8.388;2022-12-07T05:32:12;5.80;99.90
6865;DHT22;3471;49.678;8.388;2022-12-07T05:34:38;5.80;99.90
6865;DHT22;3471;49.678;8.388;2022-12-07T05:37:04;5.80;99.90
6865;DHT22;3471;49.678;8.388;2022-12-07T05:39:29;5.80;99.90
6865;DHT22;3471;49.678;8.388;2022-12-07T05:41:55;5.80;99.90
6865;DHT22;3471;49.678;8.388;2022-12-07T05:44:40;5.80;99.90
6865;DHT22;3471;49.678;8.388;2022-12-07T05:47:06;5.90;99.90
6865;DHT22;3471;49.678;8.388;2022-12-07T05:49:32;5.90;99.90
6865;DHT22;3471;49.678;8.388;2022-12-07T05:51:57;5.90;99.90
6865;DHT22;3471;49.678;8.388;2022-12-07T05:54:23;5.90;99.90
6865;DHT22;3471;49.678;8.388;2022-12-07T05:56:49;5.90;99.90
6865;DHT22;3471;49.678;8.388;2022-12-07T05:59:16;5.90;99.90
6865;DHT22;3471;49.678;8.388;2022-12-07T06:02:09;6.00;99.90
6865;DHT22;3471;49.678;8.388;2022-12-07T06:04:36;6.00;99.90
6865;DHT22;3471;49.678;8.388;2022-12-07T06:07:03;6.00;99.90
6865;DHT22;3471;49.678;8.388;2022-12-07T06:09:29;6.00;99.90
6865;DHT22;3471;49.678;8.388;2022-12-07T06:11:56;5.90;99.90
6865;DHT22;3471;49.678;8.388;2022-12-07T06:14:40;5.90;99.90
6865;DHT22;3471;49.678;8.388;2022-12-07T06:17:06;5.90;99.90
6865;DHT22;3471;49.678;8.388;2022-12-07T06:19:32;5.90;99.90
6865;DHT22;3471;49.678;8.388;2022-12-07T06:21:58;5.90;99.90
6865;DHT22;3471;49.678;8.388;2022-12-07T06:24:24;5.90;99.90
6865;DHT22;3471;49.678;8.388;2022-12-07T06:26:50;5.90;99.90
6865;DHT22;3471;49.678;8.388;2022-12-07T06:29:17;5.80;99.90
6865;DHT22;3471;49.678;8.388;2022-12-07T06:31:43;5.90;99.90
6865;DHT22;3471;49.678;8.388;2022-12-07T06:34:20;5.90;99.90
6865;DHT22;3471;49.678;8.388;2022-12-07T06:36:47;5.80;99.90
6865;DHT22;3471;49.678;8.388;2022-12-07T06:39:20;5.90;99.90
6865;DHT22;3471;49.678;8.388;2022-12-07T06:41:45;5.80;99.90
6865;DHT22;3471;49.678;8.388;2022-12-07T06:44:11;5.80;99.90
6865;DHT22;3471;49.678;8.388;2022-12-07T06:46:37;5.70;99.90
6865;DHT22;3471;49.678;8.388;2022-12-07T06:49:03;5.70;99.90
6865;DHT22;3471;49.678;8.388;2022-12-07T06:51:30;5.70;99.90
6865;DHT22;3471;49.678;8.388;2022-12-07T06:53:56;5.70;99.90
6865;DHT22;3471;49.678;8.388;2022-12-07T06:56:21;5.80;99.90
6865;DHT22;3471;49.678;8.388;2022-12-07T06:58:48;5.80;99.90
6865;DHT22;3471;49.678;8.388;2022-12-07T07:01:15;5.90;99.90
6865;DHT22;3471;49.678;8.388;2022-12-07T07:03:41;5.90;99.90
6865;DHT22;3471;49.678;8.388;2022-12-07T07:06:07;6.00;99.90
6865;DHT22;3471;49.678;8.388;2022-12-07T07:08:37;6.00;99.90
6865;DHT22;3471;49.678;8.388;2022-12-07T07:11:03;6.00;99.90
6865;DHT22;3471;49.678;8.388;2022-12-07T07:13:29;6.10;99.90
6865;DHT22;3471;49.678;8.388;2022-12-07T07:15:54;6.10;99.90
6865;DHT22;3471;49.678;8.388;2022-12-07T07:18:20;6.10;99.90
6865;DHT22;3471;49.678;8.388;2022-12-07T07:20:46;6.10;99.90
6865;DHT22;3471;49.678;8.388;2022-12-07T07:23:12;6.10;99.90
6865;DHT22;3471;49.678;8.388;2022-12-07T07:25:37;6.20;99.90
6865;DHT22;3471;49.678;8.388;2022-12-07T07:28:04;6.20;99.90
6865;DHT22;3471;49.678;8.388;2022-12-07T07:30:29;6.20;99.90
6865;DHT22;3471;49.678;8.388;2022-12-07T07:32:59;6.20;99.90
6865;DHT22;3471;49.678;8.388;2022-12-07T07:35:26;6.20;99.90
6865;DHT22;3471;49.678;8.388;2022-12-07T07:37:52;6.20;99.90
6865;DHT22;3471;49.678;8.388;2022-12-07T07:40:18;6.20;99.90
6865;DHT22;3471;49.678;8.388;2022-12-07T07:42:43;6.10;99.90
6865;DHT22;3471;49.678;8.388;2022-12-07T07:45:09;6.20;99.90
6865;DHT22;3471;49.678;8.388;2022-12-07T07:47:35;6.20;99.90
6865;DHT22;3471;49.678;8.388;2022-12-07T07:50:00;6.20;99.90
6865;DHT22;3471;49.678;8.388;2022-12-07T07:52:26;6.20;99.90
6865;DHT22;3471;49.678;8.388;2022-12-07T07:54:52;6.20;99.90
6865;DHT22;3471;49.678;8.388;2022-12-07T07:57:17;6.30;99.90
6865;DHT22;3471;49.678;8.388;2022-12-07T07:59:43;6.30;99.90
6865;DHT22;3471;49.678;8.388;2022-12-07T08:02:17;6.30;99.90
6865;DHT22;3471;49.678;8.388;2022-12-07T08:04:44;6.30;99.90
6865;DHT22;3471;49.678;8.388;2022-12-07T08:07:10;6.30;99.90
6865;DHT22;3471;49.678;8.388;2022-12-07T08:09:36;6.30;99.90
6865;DHT22;3471;49.678;8.388;2022-12-07T08:12:01;6.30;99.90
6865;DHT22;3471;49.678;8.388;2022-12-07T08:14:27;6.40;99.90
6865;DHT22;3471;49.678;8.388;2022-12-07T08:16:54;6.40;99.90
6865;DHT22;3471;49.678;8.388;2022-12-07T08:19:19;6.40;99.90
6865;DHT22;3471;49.678;8.388;2022-12-07T08:21:45;6.40;99.90
6865;DHT22;3471;49.678;8.388;2022-12-07T08:24:11;6.50;99.90
6865;DHT22;3471;49.678;8.388;2022-12-07T08:26:36;6.50;99.90
6865;DHT22;3471;49.678;8.388;2022-12-07T08:29:02;6.50;99.90
6865;DHT22;3471;49.678;8.388;2022-12-07T08:31:27;6.50;99.90
6865;DHT22;3471;49.678;8.388;2022-12-07T08:33:54;6.50;99.90
6865;DHT22;3471;49.678;8.388;2022-12-07T08:36:20;6.50;99.90
6865;DHT22;3471;49.678;8.388;2022-12-07T08:38:46;6.50;99.90
6865;DHT22;3471;49.678;8.388;2022-12-07T08:41:12;6.50;99.90
6865;DHT22;3471;49.678;8.388;2022-12-07T08:43:38;6.50;99.90
6865;DHT22;3471;49.678;8.388;2022-12-07T08:46:20;6.60;99.90
6865;DHT22;3471;49.678;8.388;2022-12-07T08:49:08;6.60;99.90
6865;DHT22;3471;49.678;8.388;2022-12-07T08:51:34;6.60;99.90
6865;DHT22;3471;49.678;8.388;2022-12-07T08:54:04;6.60;99.90
6865;DHT22;3471;49.678;8.388;2022-12-07T08:56:30;6.60;99.90
6865;DHT22;3471;49.678;8.388;2022-12-07T08:58:57;6.60;99.90
6865;DHT22;3471;49.678;8.388;2022-12-07T09:01:23;6.70;99.90
6865;DHT22;3471;49.678;8.388;2022-12-07T09:03:48;6.70;99.90
6865;DHT22;3471;49.678;8.388;2022-12-07T09:06:14;6.80;99.90
6865;DHT22;3471;49.678;8.388;2022-12-07T09:08:43;6.80;99.90
6865;DHT22;3471;49.678;8.388;2022-12-07T09:11:10;6.90;99.90
6865;DHT22;3471;49.678;8.388;2022-12-07T09:13:36;6.90;99.90
6865;DHT22;3471;49.678;8.388;2022-12-07T09:16:02;7.00;99.90
6865;DHT22;3471;49.678;8.388;2022-12-07T09:18:27;7.00;99.90
6865;DHT22;3471;49.678;8.388;2022-12-07T09:20:53;7.10;99.90
6865;DHT22;3471;49.678;8.388;2022-12-07T09:23:18;7.20;99.90
6865;DHT22;3471;49.678;8.388;2022-12-07T09:25:44;7.20;99.90
6865;DHT22;3471;49.678;8.388;2022-12-07T09:28:09;7.30;99.90
6865;DHT22;3471;49.678;8.388;2022-12-07T09:30:35;7.30;99.90
6865;DHT22;3471;49.678;8.388;2022-12-07T09:33:01;7.40;99.90
6865;DHT22;3471;49.678;8.388;2022-12-07T09:35:27;7.40;99.90
6865;DHT22;3471;49.678;8.388;2022-12-07T09:37:53;7.50;99.90
6865;DHT22;3471;49.678;8.388;2022-12-07T09:40:20;7.60;99.90
6865;DHT22;3471;49.678;8.388;2022-12-07T09:42:49;7.70;99.90
6865;DHT22;3471;49.678;8.388;2022-12-07T09:45:34;7.70;99.90
6865;DHT22;3471;49.678;8.388;2022-12-07T09:48:01;7.80;99.90
6865;DHT22;3471;49.678;8.388;2022-12-07T09:50:28;7.90;99.90
6865;DHT22;3471;49.678;8.388;2022-12-07T09:53:04;8.00;99.90
6865;DHT22;3471;49.678;8.388;2022-12-07T09:55:33;8.10;99.90
6865;DHT22;3471;49.678;8.388;2022-12-07T09:57:58;8.30;99.90
6865;DHT22;3471;49.678;8.388;2022-12-07T10:00:24;8.50;99.90
6865;DHT22;3471;49.678;8.388;2022-12-07T10:02:59;8.70;99.90
6865;DHT22;3471;49.678;8.388;2022-12-07T10:05:31;8.90;99.90
6865;DHT22;3471;49.678;8.388;2022-12-07T10:07:59;9.00;99.90
6865;DHT22;3471;49.678;8.388;2022-12-07T10:10:35;9.00;99.90
6865;DHT22;3471;49.678;8.388;2022-12-07T10:13:10;8.90;99.90
6865;DHT22;3471;49.678;8.388;2022-12-07T10:15:50;8.80;99.90
6865;DHT22;3471;49.678;8.388;2022-12-07T10:23:39;8.50;99.90
6865;DHT22;3471;49.678;8.388;2022-12-07T10:28:53;8.30;99.90
6865;DHT22;3471;49.678;8.388;2022-12-07T10:31:21;8.30;99.90
6865;DHT22;3471;49.678;8.388;2022-12-07T10:33:54;8.30;99.90
6865;DHT22;3471;49.678;8.388;2022-12-07T10:36:26;8.30;99.90
6865;DHT22;3471;49.678;8.388;2022-12-07T10:39:15;8.20;99.90
6865;DHT22;3471;49.678;8.388;2022-12-07T10:41:57;8.20;99.90
6865;DHT22;3471;49.678;8.388;2022-12-07T10:44:28;8.20;99.90
6865;DHT22;3471;49.678;8.388;2022-12-07T10:54:51;8.20;99.90
6865;DHT22;3471;49.678;8.388;2022-12-07T11:00:04;8.20;99.90
6865;DHT22;3471;49.678;8.388;2022-12-07T11:14:18;7.90;99.90
6865;DHT22;3471;49.678;8.388;2022-12-07T11:22:51;8.20;99.90
6865;DHT22;3471;49.678;8.388;2022-12-07T11:25:25;8.30;99.90
6865;DHT22;3471;49.678;8.388;2022-12-07T11:38:48;8.70;99.90
6865;DHT22;3471;49.678;8.388;2022-12-07T11:41:23;8.80;99.90
6865;DHT22;3471;49.678;8.388;2022-12-07T11:44:07;8.90;99.90
6865;DHT22;3471;49.678;8.388;2022-12-07T11:49:37;8.90;99.90
6865;DHT22;3471;49.678;8.388;2022-12-07T11:52:06;8.90;99.90
6865;DHT22;3471;49.678;8.388;2022-12-07T11:54:40;8.80;99.90
6865;DHT22;3471;49.678;8.388;2022-12-07T11:57:16;8.70;99.90
6865;DHT22;3471;49.678;8.388;2022-12-07T11:59:50;8.60;99.90
6865;DHT22;3471;49.678;8.388;2022-12-07T12:02:28;8.50;99.90
6865;DHT22;3471;49.678;8.388;2022-12-07T12:05:26;8.50;99.90
6865;DHT22;3471;49.678;8.388;2022-12-07T12:08:26;8.40;99.90
6865;DHT22;3471;49.678;8.388;2022-12-07T12:10:55;8.30;99.90
6865;DHT22;3471;49.678;8.388;2022-12-07T12:22:18;8.10;99.90
6865;DHT22;3471;49.678;8.388;2022-12-07T12:24:49;8.00;99.90
6865;DHT22;3471;49.678;8.388;2022-12-07T12:27:29;8.00;99.90
6865;DHT22;3471;49.678;8.388;2022-12-07T12:29:59;8.00;99.90
6865;DHT22;3471;49.678;8.388;2022-12-07T12:34:58;7.90;99.90
6865;DHT22;3471;49.678;8.388;2022-12-07T12:42:46;7.70;99.90
6865;DHT22;3471;49.678;8.388;2022-12-07T12:45:25;7.80;99.90
6865;DHT22;3471;49.678;8.388;2022-12-07T12:48:00;7.80;99.90
6865;DHT22;3471;49.678;8.388;2022-12-07T12:50:37;7.80;99.90
6865;DHT22;3471;49.678;8.388;2022-12-07T12:53:22;7.80;99.90
6865;DHT22;3471;49.678;8.388;2022-12-07T12:56:11;7.90;99.90
6865;DHT22;3471;49.678;8.388;2022-12-07T12:58:42;7.90;99.90
6865;DHT22;3471;49.678;8.388;2022-12-07T13:03:54;8.20;99.90
6865;DHT22;3471;49.678;8.388;2022-12-07T13:08:50;8.50;99.90
6865;DHT22;3471;49.678;8.388;2022-12-07T13:11:25;8.70;99.90
6865;DHT22;3471;49.678;8.388;2022-12-07T13:16:57;8.90;99.90
6865;DHT22;3471;49.678;8.388;2022-12-07T13:24:57;8.70;99.90
6865;DHT22;3471;49.678;8.388;2022-12-07T13:27:25;8.60;99.90
6865;DHT22;3471;49.678;8.388;2022-12-07T13:29:52;8.50;99.90
6865;DHT22;3471;49.678;8.388;2022-12-07T13:32:26;8.50;99.90
6865;DHT22;3471;49.678;8.388;2022-12-07T13:34:52;8.30;99.90
6865;DHT22;3471;49.678;8.388;2022-12-07T13:39:52;8.20;99.90
6865;DHT22;3471;49.678;8.388;2022-12-07T13:42:29;8.20;99.90
6865;DHT22;3471;49.678;8.388;2022-12-07T13:44:57;8.10;99.90
6865;DHT22;3471;49.678;8.388;2022-12-07T13:49:56;8.10;99.90
6865;DHT22;3471;49.678;8.388;2022-12-07T13:52:23;8.10;99.90
6865;DHT22;3471;49.678;8.388;2022-12-07T13:55:11;8.20;99.90
6865;DHT22;3471;49.678;8.388;2022-12-07T13:57:38;8.10;99.90
6865;DHT22;3471;49.678;8.388;2022-12-07T14:00:06;8.10;99.90
6865;DHT22;3471;49.678;8.388;2022-12-07T14:02:58;8.10;99.90
6865;DHT22;3471;49.678;8.388;2022-12-07T14:05:29;8.10;99.90
6865;DHT22;3471;49.678;8.388;2022-12-07T14:07:59;8.10;99.90
6865;DHT22;3471;49.678;8.388;2022-12-07T14:10:31;8.20;99.90
6865;DHT22;3471;49.678;8.388;2022-12-07T14:12:58;8.20;99.90
6865;DHT22;3471;49.678;8.388;2022-12-07T14:15:28;8.20;99.90
6865;DHT22;3471;49.678;8.388;2022-12-07T14:17:56;8.10;99.90
6865;DHT22;3471;49.678;8.388;2022-12-07T14:20:33;8.10;99.90
6865;DHT22;3471;49.678;8.388;2022-12-07T14:22:59;8.10;99.90
6865;DHT22;3471;49.678;8.388;2022-12-07T14:25:48;8.10;99.90
6865;DHT22;3471;49.678;8.388;2022-12-07T14:28:32;8.10;99.90
6865;DHT22;3471;49.678;8.388;2022-12-07T14:30:58;8.10;99.90
6865;DHT22;3471;49.678;8.388;2022-12-07T14:33:25;8.20;99.90
6865;DHT22;3471;49.678;8.388;2022-12-07T14:35:51;8.20;99.90
6865;DHT22;3471;49.678;8.388;2022-12-07T14:38:21;8.20;99.90
6865;DHT22;3471;49.678;8.388;2022-12-07T14:40:48;8.20;99.90
6865;DHT22;3471;49.678;8.388;2022-12-07T14:43:15;8.10;99.90
6865;DHT22;3471;49.678;8.388;2022-12-07T14:45:42;8.10;99.90
6865;DHT22;3471;49.678;8.388;2022-12-07T14:48:15;8.00;99.90
6865;DHT22;3471;49.678;8.388;2022-12-07T14:50:44;8.00;99.90
6865;DHT22;3471;49.678;8.388;2022-12-07T14:53:15;8.00;99.90
6865;DHT22;3471;49.678;8.388;2022-12-07T14:55:41;8.00;99.90
6865;DHT22;3471;49.678;8.388;2022-12-07T14:58:17;8.00;99.90
6865;DHT22;3471;49.678;8.388;2022-12-07T15:00:43;8.10;99.90
6865;DHT22;3471;49.678;8.388;2022-12-07T15:03:09;8.10;99.90
6865;DHT22;3471;49.678;8.388;2022-12-07T15:05:36;8.10;99.90
6865;DHT22;3471;49.678;8.388;2022-12-07T15:08:02;8.10;99.90
6865;DHT22;3471;49.678;8.388;2022-12-07T15:10:30;8.10;99.90
6865;DHT22;3471;49.678;8.388;2022-12-07T15:12:58;8.00;99.90
6865;DHT22;3471;49.678;8.388;2022-12-07T15:15:43;8.00;99.90
6865;DHT22;3471;49.678;8.388;2022-12-07T15:18:09;7.90;99.90
6865;DHT22;3471;49.678;8.388;2022-12-07T15:20:35;7.90;99.90
6865;DHT22;3471;49.678;8.388;2022-12-07T15:23:00;7.90;99.90
6865;DHT22;3471;49.678;8.388;2022-12-07T15:25:26;7.90;99.90
6865;DHT22;3471;49.678;8.388;2022-12-07T15:27:51;7.80;99.90
6865;DHT22;3471;49.678;8.388;2022-12-07T15:30:17;7.80;99.90
6865;DHT22;3471;49.678;8.388;2022-12-07T15:32:42;7.80;99.90
6865;DHT22;3471;49.678;8.388;2022-12-07T15:35:08;7.70;99.90
6865;DHT22;3471;49.678;8.388;2022-12-07T15:37:33;7.70;99.90
6865;DHT22;3471;49.678;8.388;2022-12-07T15:39:59;7.60;99.90
6865;DHT22;3471;49.678;8.388;2022-12-07T15:42:25;7.60;99.90
6865;DHT22;3471;49.678;8.388;2022-12-07T15:44:50;7.60;99.90
6865;DHT22;3471;49.678;8.388;2022-12-07T15:47:39;7.50;99.90
6865;DHT22;3471;49.678;8.388;2022-12-07T15:50:08;7.50;99.90
6865;DHT22;3471;49.678;8.388;2022-12-07T15:52:34;7.50;99.90
6865;DHT22;3471;49.678;8.388;2022-12-07T15:54:59;7.50;99.90
6865;DHT22;3471;49.678;8.388;2022-12-07T15:57:27;7.40;99.90
6865;DHT22;3471;49.678;8.388;2022-12-07T15:59:53;7.40;99.90
6865;DHT22;3471;49.678;8.388;2022-12-07T16:02:19;7.40;99.90
6865;DHT22;3471;49.678;8.388;2022-12-07T16:04:44;7.40;99.90
6865;DHT22;3471;49.678;8.388;2022-12-07T16:07:10;7.30;99.90
6865;DHT22;3471;49.678;8.388;2022-12-07T16:09:37;7.40;99.90
6865;DHT22;3471;49.678;8.388;2022-12-07T16:12:03;7.40;99.90
6865;DHT22;3471;49.678;8.388;2022-12-07T16:14:29;7.30;99.90
6865;DHT22;3471;49.678;8.388;2022-12-07T16:16:54;7.30;99.90
6865;DHT22;3471;49.678;8.388;2022-12-07T16:19:20;7.30;99.90
6865;DHT22;3471;49.678;8.388;2022-12-07T16:21:46;7.20;99.90
6865;DHT22;3471;49.678;8.388;2022-12-07T16:24:12;7.20;99.90
6865;DHT22;3471;49.678;8.388;2022-12-07T16:26:40;7.10;99.90
6865;DHT22;3471;49.678;8.388;2022-12-07T16:29:06;7.10;99.90
6865;DHT22;3471;49.678;8.388;2022-12-07T16:31:31;7.10;99.90
6865;DHT22;3471;49.678;8.388;2022-12-07T16:33:58;7.10;99.90
6865;DHT22;3471;49.678;8.388;2022-12-07T16:36:24;7.10;99.90
6865;DHT22;3471;49.678;8.388;2022-12-07T16:38:51;7.20;99.90
6865;DHT22;3471;49.678;8.388;2022-12-07T16:41:17;7.20;99.90
6865;DHT22;3471;49.678;8.388;2022-12-07T16:43:43;7.10;99.90
6865;DHT22;3471;49.678;8.388;2022-12-07T16:46:09;7.10;99.90
6865;DHT22;3471;49.678;8.388;2022-12-07T16:48:39;7.10;99.90
6865;DHT22;3471;49.678;8.388;2022-12-07T16:51:09;7.00;99.90
6865;DHT22;3471;49.678;8.388;2022-12-07T16:53:36;7.00;99.90
6865;DHT22;3471;49.678;8.388;2022-12-07T16:56:02;6.90;99.90
6865;DHT22;3471;49.678;8.388;2022-12-07T16:58:28;6.90;99.90
6865;DHT22;3471;49.678;8.388;2022-12-07T17:00:54;6.90;99.90
6865;DHT22;3471;49.678;8.388;2022-12-07T17:03:20;6.90;99.90
6865;DHT22;3471;49.678;8.388;2022-12-07T17:05:46;6.80;99.90
6865;DHT22;3471;49.678;8.388;2022-12-07T17:08:12;6.80;99.90
6865;DHT22;3471;49.678;8.388;2022-12-07T17:10:40;6.80;99.90
6865;DHT22;3471;49.678;8.388;2022-12-07T17:13:06;6.70;99.90
6865;DHT22;3471;49.678;8.388;2022-12-07T17:16:09;6.80;99.90
6865;DHT22;3471;49.678;8.388;2022-12-07T17:18:35;6.70;99.90
6865;DHT22;3471;49.678;8.388;2022-12-07T17:21:06;6.70;99.90
6865;DHT22;3471;49.678;8.388;2022-12-07T17:23:32;6.70;99.90
6865;DHT22;3471;49.678;8.388;2022-12-07T17:26:09;6.70;99.90
6865;DHT22;3471;49.678;8.388;2022-12-07T17:28:35;6.70;99.90
6865;DHT22;3471;49.678;8.388;2022-12-07T17:31:05;6.60;99.90
6865;DHT22;3471;49.678;8.388;2022-12-07T17:33:32;6.60;99.90
6865;DHT22;3471;49.678;8.388;2022-12-07T17:35:57;6.60;99.90
6865;DHT22;3471;49.678;8.388;2022-12-07T17:38:23;6.50;99.90
6865;DHT22;3471;49.678;8.388;2022-12-07T17:40:48;6.60;99.90
6865;DHT22;3471;49.678;8.388;2022-12-07T17:43:14;6.50;99.90
6865;DHT22;3471;49.678;8.388;2022-12-07T17:45:39;6.40;99.90
6865;DHT22;3471;49.678;8.388;2022-12-07T17:48:05;6.40;99.90
6865;DHT22;3471;49.678;8.388;2022-12-07T17:50:31;6.40;99.90
6865;DHT22;3471;49.678;8.388;2022-12-07T17:53:15;6.30;99.90
6865;DHT22;3471;49.678;8.388;2022-12-07T17:55:40;6.30;99.90
6865;DHT22;3471;49.678;8.388;2022-12-07T17:58:06;6.30;99.90
6865;DHT22;3471;49.678;8.388;2022-12-07T18:00:32;6.30;99.90
6865;DHT22;3471;49.678;8.388;2022-12-07T18:03:04;6.30;99.90
6865;DHT22;3471;49.678;8.388;2022-12-07T18:05:31;6.30;99.90
6865;DHT22;3471;49.678;8.388;2022-12-07T18:07:56;6.20;99.90
6865;DHT22;3471;49.678;8.388;2022-12-07T18:10:22;6.20;99.90
6865;DHT22;3471;49.678;8.388;2022-12-07T18:12:48;6.20;99.90
6865;DHT22;3471;49.678;8.388;2022-12-07T18:15:13;6.10;99.90
6865;DHT22;3471;49.678;8.388;2022-12-07T18:17:39;6.00;99.90
6865;DHT22;3471;49.678;8.388;2022-12-07T18:20:07;6.00;99.90
6865;DHT22;3471;49.678;8.388;2022-12-07T18:22:32;6.00;99.90
6865;DHT22;3471;49.678;8.388;2022-12-07T18:24:58;6.00;99.90
6865;DHT22;3471;49.678;8.388;2022-12-07T18:27:23;6.00;99.90
6865;DHT22;3471;49.678;8.388;2022-12-07T18:29:49;6.00;99.90
6865;DHT22;3471;49.678;8.388;2022-12-07T18:32:14;6.00;99.90
6865;DHT22;3471;49.678;8.388;2022-12-07T18:34:40;6.00;99.90